createdAt,value
2022-10-28T00:00:07.827Z,12.81
2022-10-28T00:02:34.367Z,12.79
2022-10-28T00:05:00.960Z,12.75
2022-10-28T00:07:28.326Z,12.76
2022-10-28T00:09:54.897Z,12.75
2022-10-28T00:12:21.443Z,12.77
2022-10-28T00:14:47.967Z,12.75
2022-10-28T00:17:14.560Z,12.74
2022-10-28T00:19:41.045Z,12.71
2022-10-28T00:22:07.542Z,12.71
2022-10-28T00:24:34.111Z,12.72
2022-10-28T00:27:00.616Z,12.69
2022-10-28T00:29:27.126Z,12.67
2022-10-28T00:31:53.685Z,12.65
2022-10-28T00:34:23.882Z,12.65
2022-10-28T00:36:50.370Z,12.65
2022-10-28T00:39:22.723Z,12.66
2022-10-28T00:41:54.493Z,12.66
2022-10-28T00:44:40.042Z,12.60
2022-10-28T00:47:18.011Z,12.58
2022-10-28T00:49:47.841Z,12.57
2022-10-28T00:52:21.066Z,12.55
2022-10-28T00:54:49.006Z,12.54
2022-10-28T00:57:18.490Z,12.53
2022-10-28T00:59:48.951Z,12.57
2022-10-28T01:02:16.372Z,12.56
2022-10-28T01:04:44.163Z,12.52
2022-10-28T01:07:11.248Z,12.53
2022-10-28T01:09:40.319Z,12.49
2022-10-28T01:12:42.026Z,12.48
2022-10-28T01:15:32.628Z,12.49
2022-10-28T01:18:26.029Z,12.47
2022-10-28T01:21:12.749Z,12.48
2022-10-28T01:24:05.567Z,12.47
2022-10-28T01:26:56.982Z,12.44
2022-10-28T01:30:04.946Z,12.44
2022-10-28T01:33:03.586Z,12.41
2022-10-28T01:35:41.001Z,12.39
2022-10-28T01:38:30.687Z,12.40
2022-10-28T01:41:03.047Z,12.37
2022-10-28T01:43:37.453Z,12.40
2022-10-28T01:46:05.680Z,12.38
2022-10-28T01:48:43.515Z,12.37
2022-10-28T01:51:25.458Z,12.34
2022-10-28T01:53:55.419Z,12.30
2022-10-28T01:56:27.086Z,12.27
2022-10-28T01:58:56.770Z,12.27
2022-10-28T02:01:25.127Z,12.28
2022-10-28T02:03:52.217Z,12.27
2022-10-28T02:06:22.591Z,12.30
2022-10-28T02:09:02.763Z,12.26
2022-10-28T02:11:53.881Z,12.20
2022-10-28T02:14:31.661Z,12.24
2022-10-28T02:17:14.886Z,12.24
2022-10-28T02:19:47.036Z,12.22
2022-10-28T02:22:25.006Z,12.23
2022-10-28T02:25:06.126Z,12.22
2022-10-28T02:27:50.901Z,12.21
2022-10-28T02:30:23.028Z,12.20
2022-10-28T02:32:56.143Z,12.19
2022-10-28T02:35:31.265Z,12.21
2022-10-28T02:38:01.600Z,12.20
2022-10-28T02:40:30.855Z,12.21
2022-10-28T02:43:04.358Z,12.20
2022-10-28T02:45:43.139Z,12.22
2022-10-28T02:48:40.589Z,12.24
2022-10-28T02:51:11.890Z,12.24
2022-10-28T02:54:07.481Z,12.20
2022-10-28T02:56:40.072Z,12.24
2022-10-28T02:59:14.307Z,12.14
2022-10-28T03:01:40.893Z,12.16
2022-10-28T03:04:07.494Z,12.15
2022-10-28T03:06:34.008Z,12.13
2022-10-28T03:09:00.521Z,12.12
2022-10-28T03:11:27.160Z,12.08
2022-10-28T03:13:53.723Z,12.07
2022-10-28T03:16:20.198Z,12.08
2022-10-28T03:18:46.690Z,12.04
2022-10-28T03:21:13.219Z,12.05
2022-10-28T03:23:40.181Z,12.02
2022-10-28T03:26:06.660Z,12.01
2022-10-28T03:28:33.200Z,12.02
2022-10-28T03:30:59.694Z,12.01
2022-10-28T03:33:26.267Z,12.00
2022-10-28T03:35:52.765Z,11.99
2022-10-28T03:38:19.292Z,12.00
2022-10-28T03:40:48.946Z,11.99
2022-10-28T03:43:15.771Z,11.95
2022-10-28T03:45:42.334Z,11.92
2022-10-28T03:48:09.118Z,11.92
2022-10-28T03:50:35.978Z,11.94
2022-10-28T03:53:02.497Z,11.96
2022-10-28T03:55:28.996Z,11.99
2022-10-28T03:57:55.672Z,12.05
2022-10-28T04:00:22.383Z,12.09
2022-10-28T04:02:53.500Z,12.15
2022-10-28T04:05:20.624Z,12.10
2022-10-28T04:07:47.543Z,12.09
2022-10-28T04:10:14.703Z,12.10
2022-10-28T04:12:41.195Z,12.05
2022-10-28T04:15:07.975Z,12.06
2022-10-28T04:17:34.774Z,12.05
2022-10-28T04:20:01.268Z,12.06
2022-10-28T04:22:27.789Z,12.05
2022-10-28T04:24:54.709Z,12.06
2022-10-28T04:27:21.687Z,12.06
2022-10-28T04:29:48.169Z,12.06
2022-10-28T04:32:14.651Z,12.04
2022-10-28T04:34:41.188Z,12.05
2022-10-28T04:37:07.684Z,12.04
2022-10-28T04:39:34.173Z,12.04
2022-10-28T04:42:00.670Z,12.02
2022-10-28T04:44:27.163Z,12.02
2022-10-28T04:46:56.397Z,12.02
2022-10-28T04:49:22.910Z,12.02
2022-10-28T04:51:49.408Z,12.01
2022-10-28T04:54:15.906Z,12.00
2022-10-28T04:56:42.426Z,12.02
2022-10-28T04:59:08.938Z,12.02
2022-10-28T05:01:36.190Z,12.00
2022-10-28T05:04:03.150Z,11.99
2022-10-28T05:06:29.638Z,12.00
2022-10-28T05:08:56.223Z,11.97
2022-10-28T05:11:22.804Z,11.95
2022-10-28T05:13:49.337Z,11.93
2022-10-28T05:16:15.832Z,11.90
2022-10-28T05:18:42.349Z,11.90
2022-10-28T05:21:08.929Z,11.90
2022-10-28T05:23:35.503Z,11.86
2022-10-28T05:26:02.120Z,11.84
2022-10-28T05:28:28.678Z,11.82
2022-10-28T05:30:55.176Z,11.79
2022-10-28T05:33:21.929Z,11.80
2022-10-28T05:35:48.527Z,11.79
2022-10-28T05:38:15.470Z,11.79
2022-10-28T05:40:42.127Z,11.77
2022-10-28T05:43:09.920Z,11.77
2022-10-28T05:45:37.103Z,11.79
2022-10-28T05:48:03.817Z,11.76
2022-10-28T05:50:30.346Z,11.74
2022-10-28T05:52:57.712Z,11.77
2022-10-28T05:55:28.313Z,11.82
2022-10-28T05:57:56.280Z,11.78
2022-10-28T06:00:25.948Z,11.75
2022-10-28T06:02:52.735Z,11.75
2022-10-28T06:05:20.400Z,11.73
2022-10-28T06:07:47.089Z,11.72
2022-10-28T06:10:13.598Z,11.68
2022-10-28T06:12:38.581Z,11.64
2022-10-28T06:15:05.904Z,11.67
2022-10-28T06:17:32.524Z,11.67
2022-10-28T06:19:59.050Z,11.69
2022-10-28T06:22:25.690Z,11.72
2022-10-28T06:24:52.172Z,11.72
2022-10-28T06:27:18.689Z,11.73
2022-10-28T06:29:46.605Z,11.74
2022-10-28T06:32:13.128Z,11.79
2022-10-28T06:34:39.647Z,11.80
2022-10-28T06:37:06.181Z,11.81
2022-10-28T06:39:32.972Z,11.82
2022-10-28T06:41:59.640Z,11.82
2022-10-28T06:44:26.242Z,11.79
2022-10-28T06:46:54.290Z,11.77
2022-10-28T06:49:20.893Z,11.75
2022-10-28T06:51:47.425Z,11.80
2022-10-28T06:54:13.917Z,11.81
2022-10-28T06:56:40.462Z,11.80
2022-10-28T06:59:07.706Z,11.81
2022-10-28T07:01:34.394Z,11.83
2022-10-28T07:04:00.994Z,11.81
2022-10-28T07:06:27.538Z,11.84
2022-10-28T07:08:54.027Z,11.78
2022-10-28T07:11:20.560Z,11.78
2022-10-28T07:13:48.956Z,11.78
2022-10-28T07:16:15.758Z,11.81
2022-10-28T07:18:42.259Z,11.90
2022-10-28T07:21:08.753Z,11.88
2022-10-28T07:23:35.317Z,11.90
2022-10-28T07:26:02.155Z,11.89
2022-10-28T07:28:28.947Z,11.89
2022-10-28T07:30:55.501Z,11.90
2022-10-28T07:33:22.082Z,11.89
2022-10-28T07:35:48.657Z,11.88
2022-10-28T07:38:15.556Z,11.90
2022-10-28T07:40:42.252Z,11.91
2022-10-28T07:43:08.820Z,11.97
2022-10-28T07:45:36.076Z,11.91
2022-10-28T07:48:03.505Z,11.90
2022-10-28T07:50:30.015Z,11.92
2022-10-28T07:52:56.840Z,11.96
2022-10-28T07:55:23.520Z,11.97
2022-10-28T07:57:50.083Z,11.97
2022-10-28T08:00:16.758Z,11.96
2022-10-28T08:02:43.380Z,12.04
2022-10-28T08:05:10.044Z,12.05
2022-10-28T08:07:38.759Z,12.07
2022-10-28T08:10:06.675Z,12.08
2022-10-28T08:12:33.248Z,12.12
2022-10-28T08:14:59.800Z,12.17
2022-10-28T08:17:26.341Z,12.22
2022-10-28T08:19:52.833Z,12.22
2022-10-28T08:22:19.347Z,12.19
2022-10-28T08:24:45.830Z,12.15
2022-10-28T08:27:12.418Z,12.17
2022-10-28T08:29:38.896Z,12.12
2022-10-28T08:32:08.569Z,12.00
2022-10-28T08:34:37.966Z,12.03
2022-10-28T08:37:07.543Z,12.03
2022-10-28T08:39:34.286Z,12.03
2022-10-28T08:42:19.191Z,12.01
2022-10-28T08:44:45.523Z,12.05
2022-10-28T08:47:28.180Z,12.05
2022-10-28T08:50:12.948Z,12.03
2022-10-28T08:52:53.177Z,11.95
2022-10-28T08:55:36.531Z,11.97
2022-10-28T08:58:11.828Z,12.01
2022-10-28T09:00:40.032Z,12.05
2022-10-28T09:03:16.729Z,12.11
2022-10-28T09:05:47.906Z,12.12
2022-10-28T09:08:21.802Z,12.16
2022-10-28T09:11:31.029Z,12.11
2022-10-28T09:14:09.859Z,12.09
2022-10-28T09:16:49.969Z,12.08
2022-10-28T09:19:16.408Z,12.13
2022-10-28T09:21:58.180Z,12.12
2022-10-28T09:24:38.485Z,12.13
2022-10-28T09:27:30.264Z,12.17
2022-10-28T09:30:17.558Z,12.11
2022-10-28T09:32:57.481Z,12.13
2022-10-28T09:35:27.178Z,12.14
2022-10-28T09:38:20.127Z,12.12
2022-10-28T09:40:55.333Z,12.14
2022-10-28T09:43:28.556Z,12.16
2022-10-28T09:46:02.005Z,12.18
2022-10-28T09:48:33.037Z,12.18
2022-10-28T09:51:00.791Z,12.15
2022-10-28T09:53:42.790Z,12.14
2022-10-28T09:56:09.788Z,12.15
2022-10-28T09:58:40.314Z,12.22
2022-10-28T10:01:06.867Z,12.27
2022-10-28T10:03:33.402Z,12.20
2022-10-28T10:06:09.741Z,12.16
2022-10-28T10:08:37.530Z,12.13
2022-10-28T10:11:15.150Z,12.14
2022-10-28T10:13:43.381Z,12.21
2022-10-28T10:16:18.025Z,12.26
2022-10-28T10:18:50.375Z,12.27
2022-10-28T10:21:20.151Z,12.27
2022-10-28T10:23:46.645Z,12.28
2022-10-28T10:26:15.674Z,12.31
2022-10-28T10:28:51.878Z,12.36
2022-10-28T10:31:22.109Z,12.35
2022-10-28T10:33:51.980Z,12.39
2022-10-28T10:36:31.500Z,12.21
2022-10-28T10:39:02.775Z,12.25
2022-10-28T10:41:41.152Z,12.25
2022-10-28T10:44:22.899Z,12.21
2022-10-28T10:46:55.587Z,12.21
2022-10-28T10:49:22.138Z,12.23
2022-10-28T10:51:57.832Z,12.19
2022-10-28T10:54:31.684Z,12.24
2022-10-28T10:57:10.021Z,12.30
2022-10-28T10:59:37.864Z,12.32
2022-10-28T11:02:19.969Z,12.34
2022-10-28T11:04:52.109Z,12.34
2022-10-28T11:07:18.605Z,12.34
2022-10-28T11:09:48.577Z,12.35
2022-10-28T11:12:24.463Z,12.26
2022-10-28T11:15:02.562Z,12.30
2022-10-28T11:20:07.641Z,12.33
2022-10-28T11:22:52.434Z,12.38
2022-10-28T11:25:48.638Z,12.37
2022-10-28T11:28:24.263Z,12.35
2022-10-28T11:31:01.489Z,12.35
2022-10-28T11:33:45.805Z,12.41
2022-10-28T11:36:21.923Z,12.43
2022-10-28T11:39:12.505Z,12.42
2022-10-28T11:42:01.570Z,12.41
2022-10-28T11:44:34.754Z,12.40
2022-10-28T11:47:25.776Z,12.36
2022-10-28T11:50:35.270Z,12.41
2022-10-28T11:53:20.258Z,12.44
2022-10-28T11:56:05.308Z,12.52
2022-10-28T11:59:14.117Z,12.52
2022-10-28T12:01:55.380Z,12.48
2022-10-28T12:04:46.645Z,12.50
2022-10-28T12:07:31.815Z,12.54
2022-10-28T12:10:36.020Z,12.48
2022-10-28T12:13:08.627Z,12.43
2022-10-28T12:15:45.669Z,12.48
2022-10-28T12:18:12.379Z,12.51
2022-10-28T12:20:46.141Z,12.40
2022-10-28T12:23:16.984Z,12.39
2022-10-28T12:25:46.596Z,12.42
2022-10-28T12:28:37.562Z,12.43
2022-10-28T12:31:07.611Z,12.44
2022-10-28T12:33:44.510Z,12.45
2022-10-28T12:36:37.500Z,12.46
2022-10-28T12:39:32.469Z,12.43
2022-10-28T12:42:02.558Z,12.45
2022-10-28T12:44:31.708Z,12.38
2022-10-28T12:47:09.189Z,12.31
2022-10-28T12:49:38.547Z,12.32
2022-10-28T12:52:26.857Z,12.23
2022-10-28T12:57:52.110Z,12.32
2022-10-28T13:00:31.977Z,12.43
2022-10-28T13:03:02.618Z,12.46
2022-10-28T13:05:53.369Z,12.54
2022-10-28T13:08:41.491Z,12.54
2022-10-28T13:11:32.675Z,12.51
2022-10-28T13:14:05.521Z,12.52
2022-10-28T13:17:00.997Z,12.53
2022-10-28T13:19:52.090Z,12.58
2022-10-28T13:22:32.715Z,12.54
2022-10-28T13:25:14.397Z,12.54
2022-10-28T13:27:41.108Z,12.56
2022-10-28T13:30:17.746Z,12.56
2022-10-28T13:32:44.560Z,12.58
2022-10-28T13:35:24.817Z,12.53
2022-10-28T13:37:54.627Z,12.56
2022-10-28T13:40:41.664Z,12.51
2022-10-28T13:43:40.790Z,12.53
2022-10-28T13:46:07.352Z,12.47
2022-10-28T13:48:43.814Z,12.43
2022-10-28T13:51:10.329Z,12.34
2022-10-28T13:53:45.673Z,12.27
2022-10-28T13:56:33.786Z,12.24
2022-10-28T13:59:17.764Z,12.25
2022-10-28T14:01:56.703Z,12.26
2022-10-28T14:04:31.885Z,12.18
2022-10-28T14:07:11.351Z,12.20
2022-10-28T14:09:41.385Z,12.22
2022-10-28T14:12:13.763Z,12.27
2022-10-28T14:14:53.253Z,12.30
2022-10-28T14:17:23.365Z,12.29
2022-10-28T14:19:51.902Z,12.25
2022-10-28T14:22:34.058Z,12.30
2022-10-28T14:25:00.882Z,12.34
2022-10-28T14:27:42.678Z,12.34
2022-10-28T14:30:15.800Z,12.28
2022-10-28T14:32:42.300Z,12.28
2022-10-28T14:35:14.785Z,12.37
2022-10-28T14:38:06.203Z,12.33
2022-10-28T14:40:33.001Z,12.32
2022-10-28T14:43:06.101Z,12.32
2022-10-28T14:45:59.403Z,12.35
2022-10-28T14:48:53.653Z,12.29
2022-10-28T14:51:24.640Z,12.30
2022-10-28T14:53:56.496Z,12.24
2022-10-28T14:56:26.789Z,12.22
2022-10-28T14:58:57.484Z,12.19
2022-10-28T15:01:27.044Z,12.19
2022-10-28T15:04:01.263Z,12.16
2022-10-28T15:06:30.741Z,12.12
2022-10-28T15:09:07.284Z,12.14
2022-10-28T15:11:34.542Z,12.19
2022-10-28T15:14:24.769Z,12.17
2022-10-28T15:16:51.686Z,12.15
2022-10-28T15:19:24.406Z,12.15
2022-10-28T15:22:15.244Z,12.19
2022-10-28T15:24:46.199Z,12.21
2022-10-28T15:27:14.381Z,12.20
2022-10-28T15:29:42.706Z,12.22
2022-10-28T15:32:14.208Z,12.24
2022-10-28T15:34:41.680Z,12.25
2022-10-28T15:37:08.605Z,12.24
2022-10-28T15:39:36.054Z,12.25
2022-10-28T15:42:03.368Z,12.23
2022-10-28T15:44:38.419Z,12.19
2022-10-28T15:47:15.262Z,12.13
2022-10-28T15:49:41.828Z,12.07
2022-10-28T15:52:17.447Z,12.04
2022-10-28T15:54:54.879Z,12.03
2022-10-28T15:57:29.200Z,12.00
2022-10-28T16:00:17.351Z,11.96
2022-10-28T16:02:45.939Z,11.97
2022-10-28T16:05:43.836Z,11.95
2022-10-28T16:08:23.162Z,11.96
2022-10-28T16:10:52.674Z,11.98
2022-10-28T16:13:33.295Z,12.03
2022-10-28T16:16:06.233Z,11.99
2022-10-28T16:18:39.925Z,11.94
2022-10-28T16:21:07.125Z,11.96
2022-10-28T16:23:42.922Z,11.96
2022-10-28T16:26:12.514Z,11.95
2022-10-28T16:28:42.736Z,11.93
2022-10-28T16:31:16.285Z,12.00
2022-10-28T16:33:43.091Z,12.03
2022-10-28T16:36:10.529Z,12.01
2022-10-28T16:38:37.532Z,12.00
2022-10-28T16:41:05.817Z,12.00
2022-10-28T16:43:32.734Z,12.00
2022-10-28T16:46:00.849Z,11.99
2022-10-28T16:48:29.632Z,11.97
2022-10-28T16:51:01.703Z,11.97
2022-10-28T16:53:28.737Z,11.99
2022-10-28T16:55:58.964Z,12.03
2022-10-28T16:58:27.031Z,12.01
2022-10-28T17:00:54.775Z,12.00
2022-10-28T17:03:22.053Z,12.00
2022-10-28T17:05:48.708Z,11.97
2022-10-28T17:08:15.172Z,11.93
2022-10-28T17:10:42.894Z,11.92
2022-10-28T17:13:16.027Z,11.93
2022-10-28T17:15:43.621Z,11.95
2022-10-28T17:18:11.746Z,12.01
2022-10-28T17:20:38.302Z,12.08
2022-10-28T17:23:05.594Z,12.11
2022-10-28T17:25:32.199Z,12.12
2022-10-28T17:27:58.874Z,12.16
2022-10-28T17:30:25.505Z,12.11
2022-10-28T17:32:54.389Z,12.07
2022-10-28T17:35:22.343Z,12.11
2022-10-28T17:37:49.341Z,12.11
2022-10-28T17:40:16.237Z,12.12
2022-10-28T17:42:42.700Z,12.08
2022-10-28T17:45:10.245Z,12.10
2022-10-28T17:47:36.778Z,12.07
2022-10-28T17:50:03.592Z,12.02
2022-10-28T17:52:32.981Z,12.03
2022-10-28T17:55:04.005Z,12.03
2022-10-28T17:57:30.700Z,12.02
2022-10-28T17:59:57.217Z,12.00
2022-10-28T18:02:23.868Z,11.97
2022-10-28T18:04:50.563Z,11.95
2022-10-28T18:07:17.185Z,11.94
2022-10-28T18:09:43.905Z,11.95
2022-10-28T18:12:12.482Z,11.97
2022-10-28T18:14:39.414Z,12.02
2022-10-28T18:17:05.969Z,11.99
2022-10-28T18:19:32.478Z,11.98
2022-10-28T18:21:59.187Z,11.97
2022-10-28T18:24:26.183Z,11.95
2022-10-28T18:26:54.391Z,11.95
2022-10-28T18:29:20.885Z,11.95
2022-10-28T18:31:47.382Z,11.98
2022-10-28T18:34:14.046Z,12.03
2022-10-28T18:36:40.704Z,12.05
2022-10-28T18:39:07.999Z,12.07
2022-10-28T18:41:38.293Z,12.06
2022-10-28T18:44:05.592Z,12.05
2022-10-28T18:46:35.139Z,12.03
2022-10-28T18:49:02.247Z,12.01
2022-10-28T18:51:28.996Z,11.99
2022-10-28T18:53:56.563Z,12.00
2022-10-28T18:56:25.929Z,12.01
2022-10-28T18:58:55.126Z,12.01
2022-10-28T19:01:27.190Z,12.00
2022-10-28T19:03:55.790Z,11.96
2022-10-28T19:06:23.543Z,12.02
2022-10-28T19:08:55.236Z,12.00
2022-10-28T19:11:25.713Z,12.03
2022-10-28T19:13:52.211Z,12.04
2022-10-28T19:16:18.710Z,12.06
2022-10-28T19:18:45.260Z,12.06
2022-10-28T19:21:16.995Z,12.02
2022-10-28T19:23:43.952Z,11.98
2022-10-28T19:26:11.406Z,11.97
2022-10-28T19:28:39.586Z,11.95
2022-10-28T19:31:09.039Z,11.98
2022-10-28T19:33:38.258Z,11.96
2022-10-28T19:36:26.365Z,11.95
2022-10-28T19:38:54.008Z,11.99
2022-10-28T19:41:23.460Z,12.02
2022-10-28T19:43:57.792Z,12.02
2022-10-28T19:46:26.286Z,12.04
2022-10-28T19:48:54.713Z,12.02
2022-10-28T19:51:24.595Z,12.00
2022-10-28T19:53:53.621Z,12.01
2022-10-28T19:56:20.873Z,11.99
2022-10-28T19:58:53.345Z,12.02
2022-10-28T20:01:21.839Z,12.03
2022-10-28T20:03:50.858Z,12.03
2022-10-28T20:06:19.083Z,11.99
2022-10-28T20:08:46.734Z,11.97
2022-10-28T20:11:25.855Z,12.00
2022-10-28T20:13:55.705Z,12.03
2022-10-28T20:16:22.920Z,12.04
2022-10-28T20:18:49.531Z,12.04
2022-10-28T20:21:21.411Z,12.04
2022-10-28T20:26:23.381Z,12.01
2022-10-28T20:28:50.491Z,12.00
2022-10-28T20:31:22.575Z,11.99
2022-10-28T20:33:58.484Z,11.95
2022-10-28T20:36:29.695Z,11.93
2022-10-28T20:38:58.294Z,11.92
2022-10-28T20:41:26.626Z,11.97
2022-10-28T20:43:54.317Z,11.96
2022-10-28T20:46:22.611Z,11.93
2022-10-28T20:48:49.179Z,11.92
2022-10-28T20:51:15.951Z,11.90
2022-10-28T20:53:42.846Z,11.94
2022-10-28T20:56:16.347Z,11.94
2022-10-28T20:58:43.000Z,11.92
2022-10-28T21:01:18.934Z,11.90
2022-10-28T21:03:46.727Z,11.91
2022-10-28T21:06:15.621Z,11.91
2022-10-28T21:08:43.458Z,11.92
2022-10-28T21:11:13.154Z,11.96
2022-10-28T21:13:40.077Z,11.95
2022-10-28T21:16:09.111Z,11.92
2022-10-28T21:18:37.241Z,11.92
2022-10-28T21:21:04.642Z,11.91
2022-10-28T21:23:31.476Z,11.88
2022-10-28T21:26:00.612Z,11.92
2022-10-28T21:28:28.690Z,11.90
2022-10-28T21:31:02.893Z,11.92
2022-10-28T21:33:29.482Z,11.91
2022-10-28T21:36:00.742Z,11.99
2022-10-28T21:38:28.818Z,12.02
2022-10-28T21:41:03.868Z,12.01
2022-10-28T21:43:32.781Z,12.00
2022-10-28T21:45:59.740Z,11.99
2022-10-28T21:48:28.744Z,11.96
2022-10-28T21:50:57.458Z,12.01
2022-10-28T21:53:24.717Z,12.05
2022-10-28T21:55:53.084Z,12.00
2022-10-28T21:58:20.508Z,11.96
2022-10-28T22:00:47.087Z,11.98
2022-10-28T22:03:13.717Z,11.99
2022-10-28T22:05:40.329Z,12.03
2022-10-28T22:08:06.852Z,12.04
2022-10-28T22:10:33.361Z,12.05
2022-10-28T22:12:59.858Z,12.02
2022-10-28T22:15:26.331Z,12.01
2022-10-28T22:17:53.004Z,12.00
2022-10-28T22:20:19.799Z,11.95
2022-10-28T22:22:46.367Z,11.95
2022-10-28T22:25:12.852Z,11.94
2022-10-28T22:27:39.393Z,11.95
2022-10-28T22:30:06.342Z,12.01
2022-10-28T22:32:32.844Z,12.04
2022-10-28T22:34:59.336Z,12.00
2022-10-28T22:37:25.846Z,11.99
2022-10-28T22:39:52.325Z,11.97
2022-10-28T22:42:18.887Z,12.00
2022-10-28T22:44:45.388Z,12.04
2022-10-28T22:47:11.903Z,12.04
2022-10-28T22:49:38.426Z,12.03
2022-10-28T22:52:05.113Z,11.98
2022-10-28T22:54:31.649Z,11.94
2022-10-28T22:56:58.165Z,11.94
2022-10-28T22:59:25.579Z,12.00
2022-10-28T23:01:52.690Z,12.00
2022-10-28T23:04:19.276Z,11.99
2022-10-28T23:06:45.778Z,12.01
2022-10-28T23:09:12.260Z,11.90
2022-10-28T23:11:38.807Z,11.88
2022-10-28T23:14:05.381Z,11.92
2022-10-28T23:16:31.878Z,11.92
2022-10-28T23:19:00.704Z,11.91
2022-10-28T23:21:27.410Z,11.84
2022-10-28T23:23:56.138Z,11.84
2022-10-28T23:26:23.394Z,11.77
2022-10-28T23:28:52.733Z,11.80
2022-10-28T23:31:20.418Z,11.85
2022-10-28T23:33:47.601Z,11.82
2022-10-28T23:36:15.303Z,11.78
2022-10-28T23:38:42.330Z,11.78
2022-10-28T23:41:11.382Z,11.77
2022-10-28T23:43:37.960Z,11.79
2022-10-28T23:46:04.884Z,11.76
2022-10-28T23:48:31.547Z,11.75
2022-10-28T23:50:58.056Z,11.74
2022-10-28T23:53:24.900Z,11.76
2022-10-28T23:55:52.257Z,11.73
2022-10-28T23:58:20.752Z,11.69
